VCP5T EGGW-EHRD
Flight info
| Callsign | VCP5T |
|---|---|
| Flight time | 0h 35m |
| Altitude | 23000 |
| Route | MATCH Q295 BRAIN M197 REDFA |
| Aircraft | CRJ7/M-SDFGIRWY/S |
Departure
| Time | 2026-05-05 21:53 |
|---|---|
| Airport | London Luton Airport (EGGW) |
Arrival
| Time | 2026-05-05 22:28 |
|---|---|
| Airport | Rotterdam The Hague Airport (EHRD) |
| Time | Latitude | Longitude | Altitude | Speed | Heading |
|---|---|---|---|---|---|
| 2026-05-05 21:32 | 51.87958 | -0.37324 | 506 ft | 0 kts | 161° |
| 2026-05-05 21:40 | 51.87971 | -0.37331 | 506 ft | 4 kts | 168° |
| 2026-05-05 21:41 | 51.87993 | -0.37335 | 506 ft | 3 kts | 175° |
| 2026-05-05 21:41 | 51.88011 | -0.37348 | 506 ft | 4 kts | 110° |
| 2026-05-05 21:41 | 51.88007 | -0.37383 | 506 ft | 4 kts | 72° |
| 2026-05-05 21:41 | 51.88004 | -0.37399 | 506 ft | 0 kts | 72° |
| 2026-05-05 21:43 | 51.88010 | -0.37366 | 506 ft | 5 kts | 72° |
| 2026-05-05 21:44 | 51.88022 | -0.37307 | 506 ft | 6 kts | 72° |
| 2026-05-05 21:44 | 51.88037 | -0.37233 | 506 ft | 8 kts | 72° |
| 2026-05-05 21:44 | 51.88038 | -0.37148 | 506 ft | 8 kts | 135° |
| 2026-05-05 21:44 | 51.87988 | -0.37115 | 507 ft | 8 kts | 162° |
| 2026-05-05 21:45 | 51.87927 | -0.37084 | 507 ft | 10 kts | 162° |
| 2026-05-05 21:45 | 51.87862 | -0.37050 | 509 ft | 9 kts | 162° |
| 2026-05-05 21:45 | 51.87814 | -0.37025 | 512 ft | 6 kts | 162° |
| 2026-05-05 21:45 | 51.87762 | -0.36997 | 515 ft | 9 kts | 161° |
| 2026-05-05 21:46 | 51.87714 | -0.36971 | 519 ft | 7 kts | 160° |
| 2026-05-05 21:46 | 51.87660 | -0.36946 | 523 ft | 7 kts | 182° |
| 2026-05-05 21:46 | 51.87623 | -0.37008 | 520 ft | 11 kts | 251° |
| 2026-05-05 21:46 | 51.87601 | -0.37131 | 520 ft | 12 kts | 255° |
| 2026-05-05 21:47 | 51.87579 | -0.37267 | 520 ft | 12 kts | 256° |
| 2026-05-05 21:47 | 51.87582 | -0.37412 | 521 ft | 13 kts | 255° |
| 2026-05-05 21:47 | 51.87514 | -0.37502 | 519 ft | 14 kts | 233° |
| 2026-05-05 21:47 | 51.87485 | -0.37644 | 521 ft | 13 kts | 254° |
| 2026-05-05 21:48 | 51.87469 | -0.37741 | 521 ft | 7 kts | 255° |
| 2026-05-05 21:48 | 51.87461 | -0.37790 | 520 ft | 1 kts | 255° |
| 2026-05-05 21:48 | 51.87456 | -0.37819 | 520 ft | 5 kts | 255° |
| 2026-05-05 21:48 | 51.87454 | -0.37827 | 520 ft | 0 kts | 255° |
| 2026-05-05 21:49 | 51.87453 | -0.37837 | 521 ft | 3 kts | 255° |
| 2026-05-05 21:49 | 51.87446 | -0.37875 | 521 ft | 2 kts | 255° |
| 2026-05-05 21:49 | 51.87445 | -0.37884 | 521 ft | 0 kts | 254° |
| 2026-05-05 21:49 | 51.87440 | -0.37909 | 521 ft | 6 kts | 254° |
| 2026-05-05 21:50 | 51.87424 | -0.37993 | 522 ft | 8 kts | 242° |
| 2026-05-05 21:50 | 51.87375 | -0.38061 | 521 ft | 11 kts | 206° |
| 2026-05-05 21:50 | 51.87297 | -0.38112 | 520 ft | 13 kts | 186° |
| 2026-05-05 21:50 | 51.87241 | -0.38141 | 522 ft | 5 kts | 240° |
| 2026-05-05 21:51 | 51.87224 | -0.38228 | 521 ft | 10 kts | 254° |
| 2026-05-05 21:51 | 51.87203 | -0.38311 | 518 ft | 7 kts | 177° |
| 2026-05-05 21:51 | 51.87185 | -0.38268 | 519 ft | 3 kts | 69° |
| 2026-05-05 21:51 | 51.87216 | -0.38230 | 520 ft | 8 kts | 47° |
| 2026-05-05 21:52 | 51.87347 | -0.37522 | 519 ft | 84 kts | 75° |
| 2026-05-05 21:52 | 51.87551 | -0.36347 | 522 ft | 130 kts | 71° |
| 2026-05-05 21:52 | 51.87785 | -0.34904 | 828 ft | 138 kts | 72° |
| 2026-05-05 21:53 | 51.87991 | -0.33626 | 1363 ft | 136 kts | 72° |
| 2026-05-05 21:53 | 51.88246 | -0.32189 | 1954 ft | 131 kts | 72° |
| 2026-05-05 21:53 | 51.88482 | -0.30674 | 2242 ft | 150 kts | 75° |
| 2026-05-05 21:53 | 51.88758 | -0.28849 | 2347 ft | 188 kts | 74° |
| 2026-05-05 21:54 | 51.89134 | -0.26684 | 2819 ft | 210 kts | 72° |
| 2026-05-05 21:54 | 51.89499 | -0.24303 | 3397 ft | 228 kts | 87° |
| 2026-05-05 21:54 | 51.88985 | -0.21828 | 3965 ft | 250 kts | 126° |
| 2026-05-05 21:54 | 51.87500 | -0.20207 | 4592 ft | 270 kts | 161° |
| 2026-05-05 21:55 | 51.85682 | -0.19345 | 5376 ft | 275 kts | 153° |
| 2026-05-05 21:55 | 51.84106 | -0.17603 | 6174 ft | 276 kts | 137° |
| 2026-05-05 21:55 | 51.82487 | -0.15848 | 6857 ft | 286 kts | 153° |
| 2026-05-05 21:55 | 51.80660 | -0.14515 | 7694 ft | 289 kts | 156° |
| 2026-05-05 21:56 | 51.78822 | -0.13245 | 8572 ft | 289 kts | 157° |
| 2026-05-05 21:56 | 51.76993 | -0.11820 | 9329 ft | 295 kts | 142° |
| 2026-05-05 21:56 | 51.75736 | -0.09243 | 10047 ft | 296 kts | 110° |
| 2026-05-05 21:56 | 51.75361 | -0.06039 | 10754 ft | 296 kts | 90° |
| 2026-05-05 21:57 | 51.75466 | -0.02713 | 11460 ft | 298 kts | 81° |
| 2026-05-05 21:57 | 51.75765 | 0.00612 | 12156 ft | 300 kts | 79° |
| 2026-05-05 21:57 | 51.76122 | 0.03997 | 12573 ft | 316 kts | 78° |
| 2026-05-05 21:57 | 51.76499 | 0.07604 | 12814 ft | 336 kts | 79° |
| 2026-05-05 21:58 | 51.76859 | 0.11431 | 13132 ft | 352 kts | 81° |
| 2026-05-05 21:58 | 51.77186 | 0.15382 | 13762 ft | 357 kts | 81° |
| 2026-05-05 21:58 | 51.77510 | 0.19380 | 14379 ft | 360 kts | 82° |
| 2026-05-05 21:58 | 51.77841 | 0.23407 | 15000 ft | 363 kts | 81° |
| 2026-05-05 21:59 | 51.78176 | 0.27482 | 15606 ft | 366 kts | 82° |
| 2026-05-05 21:59 | 51.78496 | 0.31585 | 16197 ft | 369 kts | 82° |
| 2026-05-05 21:59 | 51.78823 | 0.35652 | 16785 ft | 371 kts | 82° |
| 2026-05-05 21:59 | 51.79156 | 0.39807 | 17373 ft | 374 kts | 82° |
| 2026-05-05 22:00 | 51.79489 | 0.43984 | 17988 ft | 375 kts | 82° |
| 2026-05-05 22:00 | 51.79820 | 0.48184 | 18572 ft | 376 kts | 82° |
| 2026-05-05 22:00 | 51.80155 | 0.52401 | 18953 ft | 382 kts | 82° |
| 2026-05-05 22:00 | 51.80496 | 0.56683 | 19408 ft | 385 kts | 82° |
| 2026-05-05 22:01 | 51.80832 | 0.60986 | 19812 ft | 389 kts | 83° |
| 2026-05-05 22:01 | 51.81186 | 0.65357 | 20145 ft | 394 kts | 81° |
| 2026-05-05 22:01 | 51.81701 | 0.69722 | 20594 ft | 396 kts | 76° |
| 2026-05-05 22:01 | 51.82389 | 0.74055 | 20996 ft | 400 kts | 75° |
| 2026-05-05 22:02 | 51.83113 | 0.78412 | 21414 ft | 402 kts | 75° |
| 2026-05-05 22:02 | 51.83849 | 0.82784 | 21816 ft | 405 kts | 74° |
| 2026-05-05 22:02 | 51.84633 | 0.87181 | 22202 ft | 408 kts | 73° |
| 2026-05-05 22:02 | 51.85434 | 0.91587 | 22570 ft | 410 kts | 73° |
| 2026-05-05 22:03 | 51.86247 | 0.96044 | 22823 ft | 417 kts | 73° |
| 2026-05-05 22:03 | 51.87062 | 1.00530 | 22916 ft | 423 kts | 73° |
| 2026-05-05 22:03 | 51.87885 | 1.05087 | 22951 ft | 420 kts | 73° |
| 2026-05-05 22:03 | 51.88703 | 1.09610 | 22966 ft | 417 kts | 73° |
| 2026-05-05 22:04 | 51.89516 | 1.14109 | 22968 ft | 415 kts | 73° |
| 2026-05-05 22:04 | 51.90320 | 1.18586 | 22973 ft | 415 kts | 73° |
| 2026-05-05 22:04 | 51.91127 | 1.23088 | 22977 ft | 418 kts | 73° |
| 2026-05-05 22:04 | 51.91940 | 1.27637 | 22978 ft | 422 kts | 73° |
| 2026-05-05 22:05 | 51.92761 | 1.32232 | 22980 ft | 426 kts | 73° |
| 2026-05-05 22:05 | 51.93584 | 1.36865 | 22980 ft | 429 kts | 73° |
| 2026-05-05 22:05 | 51.94412 | 1.41522 | 22985 ft | 430 kts | 73° |
| 2026-05-05 22:05 | 51.95240 | 1.46200 | 22974 ft | 431 kts | 73° |
| 2026-05-05 22:06 | 51.96058 | 1.50802 | 22980 ft | 430 kts | 74° |
| 2026-05-05 22:06 | 51.96879 | 1.55457 | 22975 ft | 428 kts | 74° |
| 2026-05-05 22:06 | 51.97689 | 1.60094 | 22968 ft | 426 kts | 74° |
| 2026-05-05 22:06 | 51.98492 | 1.64704 | 22967 ft | 424 kts | 74° |
| 2026-05-05 22:07 | 51.99292 | 1.69297 | 22971 ft | 422 kts | 74° |
| 2026-05-05 22:07 | 52.00068 | 1.73865 | 22972 ft | 420 kts | 75° |
| 2026-05-05 22:07 | 52.00790 | 1.78459 | 22965 ft | 418 kts | 76° |
| 2026-05-05 22:07 | 52.01500 | 1.83026 | 22959 ft | 417 kts | 76° |
| 2026-05-05 22:08 | 52.02207 | 1.87584 | 22962 ft | 416 kts | 76° |
| 2026-05-05 22:08 | 52.02910 | 1.92136 | 22963 ft | 414 kts | 76° |
| 2026-05-05 22:08 | 52.03616 | 1.96673 | 22960 ft | 414 kts | 76° |
| 2026-05-05 22:08 | 52.04307 | 2.01155 | 22957 ft | 413 kts | 77° |
| 2026-05-05 22:09 | 52.04999 | 2.05679 | 22956 ft | 412 kts | 76° |
| 2026-05-05 22:09 | 52.05689 | 2.10203 | 22967 ft | 413 kts | 77° |
| 2026-05-05 22:09 | 52.06380 | 2.14739 | 22969 ft | 415 kts | 76° |
| 2026-05-05 22:09 | 52.07076 | 2.19310 | 22959 ft | 417 kts | 77° |
| 2026-05-05 22:10 | 52.07771 | 2.23898 | 22965 ft | 418 kts | 77° |
| 2026-05-05 22:10 | 52.08465 | 2.28492 | 22965 ft | 420 kts | 77° |
| 2026-05-05 22:10 | 52.09151 | 2.33041 | 22970 ft | 421 kts | 76° |
| 2026-05-05 22:10 | 52.09844 | 2.37649 | 22960 ft | 423 kts | 77° |
| 2026-05-05 22:11 | 52.10540 | 2.42306 | 22964 ft | 424 kts | 77° |
| 2026-05-05 22:11 | 52.11034 | 2.47030 | 22940 ft | 424 kts | 90° |
| 2026-05-05 22:11 | 52.10594 | 2.51741 | 22956 ft | 423 kts | 105° |
| 2026-05-05 22:11 | 52.09607 | 2.56244 | 22967 ft | 423 kts | 114° |
| 2026-05-05 22:12 | 52.08346 | 2.60567 | 22697 ft | 422 kts | 117° |
| 2026-05-05 22:12 | 52.07059 | 2.64778 | 22122 ft | 411 kts | 117° |
| 2026-05-05 22:12 | 52.05816 | 2.68912 | 21560 ft | 402 kts | 116° |
| 2026-05-05 22:12 | 52.04654 | 2.72990 | 21028 ft | 393 kts | 115° |
| 2026-05-05 22:13 | 52.03538 | 2.76996 | 20509 ft | 385 kts | 115° |
| 2026-05-05 22:13 | 52.02437 | 2.80918 | 20014 ft | 378 kts | 115° |
| 2026-05-05 22:13 | 52.01344 | 2.84794 | 19535 ft | 379 kts | 115° |
| 2026-05-05 22:13 | 52.00257 | 2.88636 | 19076 ft | 379 kts | 114° |
| 2026-05-05 22:14 | 51.99164 | 2.92503 | 18616 ft | 374 kts | 114° |
| 2026-05-05 22:14 | 51.98085 | 2.96313 | 18152 ft | 371 kts | 114° |
| 2026-05-05 22:14 | 51.97011 | 3.00111 | 17640 ft | 369 kts | 114° |
| 2026-05-05 22:14 | 51.95939 | 3.03878 | 17140 ft | 366 kts | 114° |
| 2026-05-05 22:15 | 51.94878 | 3.07622 | 16641 ft | 365 kts | 114° |
| 2026-05-05 22:15 | 51.93816 | 3.11348 | 16162 ft | 363 kts | 114° |
| 2026-05-05 22:15 | 51.93114 | 3.13799 | 15862 ft | 362 kts | 114° |
| 2026-05-05 22:15 | 51.92059 | 3.17488 | 15401 ft | 360 kts | 114° |
| 2026-05-05 22:16 | 51.91007 | 3.21159 | 14951 ft | 358 kts | 114° |
| 2026-05-05 22:16 | 51.89960 | 3.24810 | 14506 ft | 357 kts | 114° |
| 2026-05-05 22:16 | 51.88917 | 3.28443 | 14070 ft | 355 kts | 114° |
| 2026-05-05 22:16 | 51.87878 | 3.32051 | 13610 ft | 353 kts | 115° |
| 2026-05-05 22:17 | 51.86847 | 3.35641 | 13135 ft | 351 kts | 114° |
| 2026-05-05 22:17 | 51.85815 | 3.39209 | 12662 ft | 348 kts | 114° |
| 2026-05-05 22:17 | 51.84797 | 3.42748 | 12203 ft | 345 kts | 114° |
| 2026-05-05 22:17 | 51.83796 | 3.46206 | 11772 ft | 342 kts | 114° |
| 2026-05-05 22:18 | 51.82788 | 3.49678 | 11345 ft | 339 kts | 114° |
| 2026-05-05 22:18 | 51.81795 | 3.53110 | 10892 ft | 335 kts | 114° |
| 2026-05-05 22:18 | 51.80815 | 3.56479 | 10490 ft | 328 kts | 113° |
| 2026-05-05 22:18 | 51.80286 | 3.59976 | 10067 ft | 318 kts | 88° |
| 2026-05-05 22:19 | 51.80587 | 3.63411 | 9672 ft | 301 kts | 74° |
| 2026-05-05 22:19 | 51.81164 | 3.66581 | 9270 ft | 288 kts | 70° |
| 2026-05-05 22:19 | 51.81821 | 3.69613 | 8879 ft | 285 kts | 69° |
| 2026-05-05 22:19 | 51.82496 | 3.72608 | 8502 ft | 281 kts | 68° |
| 2026-05-05 22:20 | 51.83145 | 3.75572 | 8155 ft | 278 kts | 69° |
| 2026-05-05 22:20 | 51.83751 | 3.78473 | 7793 ft | 275 kts | 70° |
| 2026-05-05 22:20 | 51.84344 | 3.81418 | 7459 ft | 276 kts | 70° |
| 2026-05-05 22:20 | 51.84927 | 3.84372 | 7113 ft | 274 kts | 70° |
| 2026-05-05 22:21 | 51.85510 | 3.87282 | 6778 ft | 269 kts | 70° |
| 2026-05-05 22:21 | 51.86070 | 3.90167 | 6431 ft | 269 kts | 76° |
| 2026-05-05 22:21 | 51.86276 | 3.93158 | 6085 ft | 266 kts | 86° |
| 2026-05-05 22:21 | 51.86298 | 3.96128 | 5734 ft | 262 kts | 89° |
| 2026-05-05 22:22 | 51.86280 | 3.99046 | 5393 ft | 257 kts | 89° |
| 2026-05-05 22:22 | 51.86261 | 4.01920 | 5068 ft | 253 kts | 89° |
| 2026-05-05 22:22 | 51.86249 | 4.04735 | 4761 ft | 247 kts | 86° |
| 2026-05-05 22:22 | 51.86271 | 4.07495 | 4450 ft | 243 kts | 86° |
| 2026-05-05 22:23 | 51.86312 | 4.10204 | 4151 ft | 239 kts | 86° |
| 2026-05-05 22:23 | 51.86359 | 4.12868 | 3856 ft | 235 kts | 86° |
| 2026-05-05 22:23 | 51.86405 | 4.15457 | 3587 ft | 231 kts | 86° |
| 2026-05-05 22:23 | 51.86451 | 4.18023 | 3325 ft | 224 kts | 86° |
| 2026-05-05 22:24 | 51.86523 | 4.20485 | 3058 ft | 214 kts | 77° |
| 2026-05-05 22:24 | 51.87099 | 4.22631 | 2812 ft | 204 kts | 60° |
| 2026-05-05 22:24 | 51.87816 | 4.24567 | 2563 ft | 197 kts | 55° |
| 2026-05-05 22:24 | 51.88579 | 4.26349 | 2349 ft | 186 kts | 54° |
| 2026-05-05 22:25 | 51.89278 | 4.28014 | 2180 ft | 172 kts | 54° |
| 2026-05-05 22:25 | 51.89917 | 4.29571 | 2014 ft | 162 kts | 55° |
| 2026-05-05 22:25 | 51.90519 | 4.31067 | 1769 ft | 154 kts | 55° |
| 2026-05-05 22:25 | 51.91068 | 4.32465 | 1545 ft | 140 kts | 54° |
| 2026-05-05 22:26 | 51.91558 | 4.33697 | 1380 ft | 124 kts | 54° |
| 2026-05-05 22:26 | 51.92012 | 4.34847 | 1203 ft | 119 kts | 55° |
| 2026-05-05 22:26 | 51.92462 | 4.35974 | 1033 ft | 118 kts | 55° |
| 2026-05-05 22:26 | 51.92901 | 4.37078 | 894 ft | 120 kts | 53° |
| 2026-05-05 22:27 | 51.93351 | 4.38222 | 734 ft | 119 kts | 54° |
| 2026-05-05 22:27 | 51.93810 | 4.39335 | 588 ft | 122 kts | 53° |
| 2026-05-05 22:27 | 51.94285 | 4.40508 | 398 ft | 123 kts | 51° |
| 2026-05-05 22:27 | 51.94747 | 4.41694 | 237 ft | 126 kts | 53° |
| 2026-05-05 22:28 | 51.95221 | 4.42887 | 84 ft | 125 kts | 53° |
| 2026-05-05 22:28 | 51.95662 | 4.43960 | -1 ft | 93 kts | 56° |
| 2026-05-05 22:28 | 51.95917 | 4.44594 | -3 ft | 39 kts | 57° |
| 2026-05-05 22:28 | 51.96051 | 4.44929 | -1 ft | 34 kts | 57° |
| 2026-05-05 22:29 | 51.96146 | 4.45174 | 0 ft | 19 kts | 61° |
| 2026-05-05 22:29 | 51.96134 | 4.45342 | 0 ft | 17 kts | 129° |
| 2026-05-05 22:29 | 51.96037 | 4.45386 | -1 ft | 15 kts | 214° |
| 2026-05-05 22:29 | 51.95988 | 4.45261 | -1 ft | 13 kts | 239° |
| 2026-05-05 22:30 | 51.95935 | 4.45130 | -1 ft | 15 kts | 234° |
| 2026-05-05 22:30 | 51.95876 | 4.44986 | -1 ft | 16 kts | 238° |
| 2026-05-05 22:30 | 51.95814 | 4.44825 | -1 ft | 18 kts | 238° |
| 2026-05-05 22:30 | 51.95744 | 4.44651 | -1 ft | 19 kts | 236° |
| 2026-05-05 22:31 | 51.95669 | 4.44466 | -1 ft | 20 kts | 237° |
| 2026-05-05 22:31 | 51.95591 | 4.44271 | -1 ft | 20 kts | 238° |
| 2026-05-05 22:31 | 51.95513 | 4.44073 | -1 ft | 21 kts | 237° |
| 2026-05-05 22:31 | 51.95435 | 4.43878 | -1 ft | 21 kts | 237° |
| 2026-05-05 22:32 | 51.95355 | 4.43680 | -1 ft | 16 kts | 237° |
| 2026-05-05 22:32 | 51.95301 | 4.43546 | -1 ft | 11 kts | 237° |
| 2026-05-05 22:32 | 51.95258 | 4.43449 | -1 ft | 10 kts | 217° |
| 2026-05-05 22:32 | 51.95200 | 4.43479 | -1 ft | 10 kts | 146° |
| 2026-05-05 22:33 | 51.95154 | 4.43458 | -1 ft | 5 kts | 265° |
| 2026-05-05 22:33 | 51.95172 | 4.43424 | -1 ft | 5 kts | 324° |
| 2026-05-05 22:33 | 51.95189 | 4.43405 | -1 ft | 1 kts | 327° |
| 2026-05-05 22:33 | 51.95190 | 4.43404 | -1 ft | 0 kts | 327° |